sensor_id;sensor_type;location;lat;lon;timestamp;P1;durP1;ratioP1;P2;durP2;ratioP2
78858;SDS011;68210;52.032;4.634;2023-06-22T00:00:13;15.18;;;9.68;;
78858;SDS011;68210;52.032;4.634;2023-06-22T00:02:14;13.75;;;9.07;;
78858;SDS011;68210;52.032;4.634;2023-06-22T00:04:14;23.33;;;15.23;;
78858;SDS011;68210;52.032;4.634;2023-06-22T00:06:15;16.63;;;9.35;;
78858;SDS011;68210;52.032;4.634;2023-06-22T00:08:15;14.10;;;8.23;;
78858;SDS011;68210;52.032;4.634;2023-06-22T00:10:16;22.92;;;14.75;;
78858;SDS011;68210;52.032;4.634;2023-06-22T00:12:17;16.10;;;9.95;;
78858;SDS011;68210;52.032;4.634;2023-06-22T00:14:17;23.27;;;13.98;;
78858;SDS011;68210;52.032;4.634;2023-06-22T00:16:17;26.38;;;14.32;;
78858;SDS011;68210;52.032;4.634;2023-06-22T00:18:18;11.13;;;7.22;;
78858;SDS011;68210;52.032;4.634;2023-06-22T00:20:18;15.77;;;9.32;;
78858;SDS011;68210;52.032;4.634;2023-06-22T00:22:19;14.90;;;9.43;;
78858;SDS011;68210;52.032;4.634;2023-06-22T00:24:28;12.15;;;7.93;;
78858;SDS011;68210;52.032;4.634;2023-06-22T00:26:28;15.73;;;9.55;;
78858;SDS011;68210;52.032;4.634;2023-06-22T00:28:28;14.73;;;9.30;;
78858;SDS011;68210;52.032;4.634;2023-06-22T00:30:29;11.98;;;7.60;;
78858;SDS011;68210;52.032;4.634;2023-06-22T00:32:30;12.85;;;8.20;;
78858;SDS011;68210;52.032;4.634;2023-06-22T00:34:31;16.50;;;9.55;;
78858;SDS011;68210;52.032;4.634;2023-06-22T00:36:31;10.93;;;6.68;;
78858;SDS011;68210;52.032;4.634;2023-06-22T00:38:31;12.13;;;6.90;;
78858;SDS011;68210;52.032;4.634;2023-06-22T00:40:33;12.38;;;7.50;;
78858;SDS011;68210;52.032;4.634;2023-06-22T00:42:33;20.55;;;13.70;;
78858;SDS011;68210;52.032;4.634;2023-06-22T00:44:34;20.00;;;12.20;;
78858;SDS011;68210;52.032;4.634;2023-06-22T00:46:35;13.10;;;8.82;;
78858;SDS011;68210;52.032;4.634;2023-06-22T00:48:36;14.38;;;7.80;;
78858;SDS011;68210;52.032;4.634;2023-06-22T00:50:36;19.67;;;11.98;;
78858;SDS011;68210;52.032;4.634;2023-06-22T00:52:37;20.73;;;12.40;;
78858;SDS011;68210;52.032;4.634;2023-06-22T00:54:43;21.75;;;12.93;;
78858;SDS011;68210;52.032;4.634;2023-06-22T00:56:45;11.35;;;7.03;;
78858;SDS011;68210;52.032;4.634;2023-06-22T00:58:46;10.68;;;7.20;;
78858;SDS011;68210;52.032;4.634;2023-06-22T01:00:47;13.30;;;7.65;;
78858;SDS011;68210;52.032;4.634;2023-06-22T01:02:48;13.82;;;8.85;;
78858;SDS011;68210;52.032;4.634;2023-06-22T01:04:51;11.07;;;7.57;;
78858;SDS011;68210;52.032;4.634;2023-06-22T01:06:54;14.50;;;8.18;;
78858;SDS011;68210;52.032;4.634;2023-06-22T01:09:26;14.93;;;9.80;;
78858;SDS011;68210;52.032;4.634;2023-06-22T01:11:37;10.18;;;6.88;;
78858;SDS011;68210;52.032;4.634;2023-06-22T01:16:16;12.65;;;7.25;;
78858;SDS011;68210;52.032;4.634;2023-06-22T01:18:20;12.40;;;8.23;;
78858;SDS011;68210;52.032;4.634;2023-06-22T01:20:25;10.18;;;6.63;;
78858;SDS011;68210;52.032;4.634;2023-06-22T01:22:30;12.48;;;8.10;;
78858;SDS011;68210;52.032;4.634;2023-06-22T01:29:26;20.15;;;11.88;;
78858;SDS011;68210;52.032;4.634;2023-06-22T01:31:29;20.67;;;12.00;;
78858;SDS011;68210;52.032;4.634;2023-06-22T01:33:35;9.88;;;6.57;;
78858;SDS011;68210;52.032;4.634;2023-06-22T01:35:39;15.60;;;9.27;;
78858;SDS011;68210;52.032;4.634;2023-06-22T01:37:40;14.45;;;9.30;;
78858;SDS011;68210;52.032;4.634;2023-06-22T01:39:40;10.05;;;6.85;;
78858;SDS011;68210;52.032;4.634;2023-06-22T01:41:41;12.75;;;8.00;;
78858;SDS011;68210;52.032;4.634;2023-06-22T01:43:42;11.88;;;7.13;;
78858;SDS011;68210;52.032;4.634;2023-06-22T01:45:44;21.85;;;13.75;;
78858;SDS011;68210;52.032;4.634;2023-06-22T01:47:45;15.85;;;10.77;;
78858;SDS011;68210;52.032;4.634;2023-06-22T01:49:46;13.93;;;9.63;;
78858;SDS011;68210;52.032;4.634;2023-06-22T01:51:47;18.50;;;11.80;;
78858;SDS011;68210;52.032;4.634;2023-06-22T01:53:48;12.60;;;7.65;;
78858;SDS011;68210;52.032;4.634;2023-06-22T01:55:48;14.85;;;8.85;;
78858;SDS011;68210;52.032;4.634;2023-06-22T01:57:49;8.55;;;6.10;;
78858;SDS011;68210;52.032;4.634;2023-06-22T01:59:52;10.38;;;7.35;;
78858;SDS011;68210;52.032;4.634;2023-06-22T02:02:02;10.40;;;6.10;;
78858;SDS011;68210;52.032;4.634;2023-06-22T02:04:07;11.45;;;7.38;;
78858;SDS011;68210;52.032;4.634;2023-06-22T02:06:21;14.38;;;8.80;;
78858;SDS011;68210;52.032;4.634;2023-06-22T02:08:28;10.18;;;6.45;;
78858;SDS011;68210;52.032;4.634;2023-06-22T02:10:31;13.85;;;9.35;;
78858;SDS011;68210;52.032;4.634;2023-06-22T02:12:34;12.60;;;9.02;;
78858;SDS011;68210;52.032;4.634;2023-06-22T02:14:36;12.40;;;8.50;;
78858;SDS011;68210;52.032;4.634;2023-06-22T02:16:37;11.55;;;7.40;;
78858;SDS011;68210;52.032;4.634;2023-06-22T02:18:38;12.88;;;8.38;;
78858;SDS011;68210;52.032;4.634;2023-06-22T02:20:40;21.13;;;9.85;;
78858;SDS011;68210;52.032;4.634;2023-06-22T02:22:40;19.02;;;11.85;;
78858;SDS011;68210;52.032;4.634;2023-06-22T02:24:41;12.35;;;7.60;;
78858;SDS011;68210;52.032;4.634;2023-06-22T02:26:42;13.32;;;9.65;;
78858;SDS011;68210;52.032;4.634;2023-06-22T02:28:44;15.30;;;10.00;;
78858;SDS011;68210;52.032;4.634;2023-06-22T02:30:45;18.42;;;11.52;;
78858;SDS011;68210;52.032;4.634;2023-06-22T02:32:46;12.55;;;7.70;;
78858;SDS011;68210;52.032;4.634;2023-06-22T02:34:46;10.90;;;7.05;;
78858;SDS011;68210;52.032;4.634;2023-06-22T02:36:48;12.45;;;8.93;;
78858;SDS011;68210;52.032;4.634;2023-06-22T02:38:52;11.00;;;6.30;;
78858;SDS011;68210;52.032;4.634;2023-06-22T02:40:52;9.73;;;6.38;;
78858;SDS011;68210;52.032;4.634;2023-06-22T02:42:53;9.27;;;6.50;;
78858;SDS011;68210;52.032;4.634;2023-06-22T02:44:53;12.88;;;9.07;;
78858;SDS011;68210;52.032;4.634;2023-06-22T02:46:54;14.77;;;6.97;;
78858;SDS011;68210;52.032;4.634;2023-06-22T02:48:54;12.10;;;7.85;;
78858;SDS011;68210;52.032;4.634;2023-06-22T02:50:55;12.18;;;6.85;;
78858;SDS011;68210;52.032;4.634;2023-06-22T02:52:55;15.80;;;10.48;;
78858;SDS011;68210;52.032;4.634;2023-06-22T02:54:55;15.80;;;10.35;;
78858;SDS011;68210;52.032;4.634;2023-06-22T02:56:56;11.93;;;8.57;;
78858;SDS011;68210;52.032;4.634;2023-06-22T02:58:56;12.90;;;8.50;;
78858;SDS011;68210;52.032;4.634;2023-06-22T03:01:00;12.98;;;8.23;;
78858;SDS011;68210;52.032;4.634;2023-06-22T03:03:04;10.68;;;6.88;;
78858;SDS011;68210;52.032;4.634;2023-06-22T03:05:04;8.98;;;6.32;;
78858;SDS011;68210;52.032;4.634;2023-06-22T03:07:06;8.55;;;6.20;;
78858;SDS011;68210;52.032;4.634;2023-06-22T03:09:06;13.40;;;10.20;;
78858;SDS011;68210;52.032;4.634;2023-06-22T03:11:07;14.40;;;9.85;;
78858;SDS011;68210;52.032;4.634;2023-06-22T03:13:07;21.35;;;13.73;;
78858;SDS011;68210;52.032;4.634;2023-06-22T03:15:11;30.88;;;19.88;;
78858;SDS011;68210;52.032;4.634;2023-06-22T03:17:12;18.48;;;11.13;;
78858;SDS011;68210;52.032;4.634;2023-06-22T03:19:13;13.23;;;7.25;;
78858;SDS011;68210;52.032;4.634;2023-06-22T03:21:13;24.70;;;13.75;;
78858;SDS011;68210;52.032;4.634;2023-06-22T03:23:15;16.88;;;10.98;;
78858;SDS011;68210;52.032;4.634;2023-06-22T03:25:15;14.80;;;9.38;;
78858;SDS011;68210;52.032;4.634;2023-06-22T03:27:16;16.40;;;11.13;;
78858;SDS011;68210;52.032;4.634;2023-06-22T03:29:16;14.82;;;9.38;;
78858;SDS011;68210;52.032;4.634;2023-06-22T03:31:16;16.83;;;10.32;;
78858;SDS011;68210;52.032;4.634;2023-06-22T03:33:21;14.70;;;9.40;;
78858;SDS011;68210;52.032;4.634;2023-06-22T03:35:22;14.18;;;9.02;;
78858;SDS011;68210;52.032;4.634;2023-06-22T03:37:22;12.60;;;7.90;;
78858;SDS011;68210;52.032;4.634;2023-06-22T03:39:23;14.52;;;9.65;;
78858;SDS011;68210;52.032;4.634;2023-06-22T03:41:23;19.42;;;12.15;;
78858;SDS011;68210;52.032;4.634;2023-06-22T03:43:23;17.27;;;10.88;;
78858;SDS011;68210;52.032;4.634;2023-06-22T03:45:24;14.00;;;8.90;;
78858;SDS011;68210;52.032;4.634;2023-06-22T03:47:24;12.90;;;8.05;;
78858;SDS011;68210;52.032;4.634;2023-06-22T03:49:24;11.30;;;6.50;;
78858;SDS011;68210;52.032;4.634;2023-06-22T03:51:25;13.73;;;9.00;;
78858;SDS011;68210;52.032;4.634;2023-06-22T03:53:25;16.48;;;9.65;;
78858;SDS011;68210;52.032;4.634;2023-06-22T03:55:26;20.60;;;12.90;;
78858;SDS011;68210;52.032;4.634;2023-06-22T03:57:26;17.55;;;10.43;;
78858;SDS011;68210;52.032;4.634;2023-06-22T03:59:26;19.75;;;12.90;;
78858;SDS011;68210;52.032;4.634;2023-06-22T04:01:27;13.82;;;9.25;;
78858;SDS011;68210;52.032;4.634;2023-06-22T04:03:27;18.45;;;11.27;;
78858;SDS011;68210;52.032;4.634;2023-06-22T04:05:27;11.73;;;7.60;;
78858;SDS011;68210;52.032;4.634;2023-06-22T04:07:28;10.77;;;7.10;;
78858;SDS011;68210;52.032;4.634;2023-06-22T04:09:28;20.13;;;13.38;;
78858;SDS011;68210;52.032;4.634;2023-06-22T04:11:28;16.23;;;8.35;;
78858;SDS011;68210;52.032;4.634;2023-06-22T04:13:29;12.77;;;8.32;;
78858;SDS011;68210;52.032;4.634;2023-06-22T04:15:29;12.57;;;8.55;;
78858;SDS011;68210;52.032;4.634;2023-06-22T04:17:29;21.48;;;13.90;;
78858;SDS011;68210;52.032;4.634;2023-06-22T04:19:30;12.98;;;8.30;;
78858;SDS011;68210;52.032;4.634;2023-06-22T04:21:31;12.48;;;7.88;;
78858;SDS011;68210;52.032;4.634;2023-06-22T04:23:31;12.27;;;7.00;;
78858;SDS011;68210;52.032;4.634;2023-06-22T04:25:31;13.35;;;8.50;;
78858;SDS011;68210;52.032;4.634;2023-06-22T04:27:32;13.65;;;9.23;;
78858;SDS011;68210;52.032;4.634;2023-06-22T04:29:32;20.48;;;13.85;;
78858;SDS011;68210;52.032;4.634;2023-06-22T04:31:33;16.92;;;11.55;;
78858;SDS011;68210;52.032;4.634;2023-06-22T04:33:36;14.90;;;9.48;;
78858;SDS011;68210;52.032;4.634;2023-06-22T04:35:38;15.30;;;9.20;;
78858;SDS011;68210;52.032;4.634;2023-06-22T04:37:41;19.92;;;11.98;;
78858;SDS011;68210;52.032;4.634;2023-06-22T04:39:42;21.63;;;11.25;;
78858;SDS011;68210;52.032;4.634;2023-06-22T04:41:43;20.23;;;13.30;;
78858;SDS011;68210;52.032;4.634;2023-06-22T04:43:43;19.50;;;12.00;;
78858;SDS011;68210;52.032;4.634;2023-06-22T04:45:44;19.95;;;13.20;;
78858;SDS011;68210;52.032;4.634;2023-06-22T04:47:44;14.30;;;7.82;;
78858;SDS011;68210;52.032;4.634;2023-06-22T04:49:45;12.23;;;8.20;;
78858;SDS011;68210;52.032;4.634;2023-06-22T04:51:46;12.50;;;9.07;;
78858;SDS011;68210;52.032;4.634;2023-06-22T04:53:46;11.35;;;7.82;;
78858;SDS011;68210;52.032;4.634;2023-06-22T04:55:47;12.93;;;8.90;;
78858;SDS011;68210;52.032;4.634;2023-06-22T04:57:49;24.90;;;15.38;;
78858;SDS011;68210;52.032;4.634;2023-06-22T04:59:49;24.75;;;15.57;;
78858;SDS011;68210;52.032;4.634;2023-06-22T05:01:49;14.98;;;9.93;;
78858;SDS011;68210;52.032;4.634;2023-06-22T05:03:51;13.65;;;8.95;;
78858;SDS011;68210;52.032;4.634;2023-06-22T05:05:55;15.07;;;9.68;;
78858;SDS011;68210;52.032;4.634;2023-06-22T05:07:56;16.60;;;10.82;;
78858;SDS011;68210;52.032;4.634;2023-06-22T05:10:00;12.05;;;8.52;;
78858;SDS011;68210;52.032;4.634;2023-06-22T05:12:03;19.05;;;12.27;;
78858;SDS011;68210;52.032;4.634;2023-06-22T05:14:04;19.25;;;11.98;;
78858;SDS011;68210;52.032;4.634;2023-06-22T05:16:05;17.60;;;12.43;;
78858;SDS011;68210;52.032;4.634;2023-06-22T05:18:06;15.20;;;10.80;;
78858;SDS011;68210;52.032;4.634;2023-06-22T05:20:06;18.83;;;11.48;;
78858;SDS011;68210;52.032;4.634;2023-06-22T05:22:08;22.10;;;12.70;;
78858;SDS011;68210;52.032;4.634;2023-06-22T05:24:09;20.70;;;11.35;;
78858;SDS011;68210;52.032;4.634;2023-06-22T05:26:09;14.23;;;7.25;;
78858;SDS011;68210;52.032;4.634;2023-06-22T05:28:10;17.05;;;10.55;;
78858;SDS011;68210;52.032;4.634;2023-06-22T05:30:11;18.20;;;11.63;;
78858;SDS011;68210;52.032;4.634;2023-06-22T05:32:11;21.52;;;12.65;;
78858;SDS011;68210;52.032;4.634;2023-06-22T05:34:12;18.17;;;11.30;;
78858;SDS011;68210;52.032;4.634;2023-06-22T05:36:13;17.77;;;11.90;;
78858;SDS011;68210;52.032;4.634;2023-06-22T05:38:14;20.35;;;12.23;;
78858;SDS011;68210;52.032;4.634;2023-06-22T05:40:14;14.95;;;10.93;;
78858;SDS011;68210;52.032;4.634;2023-06-22T05:42:15;19.67;;;11.75;;
78858;SDS011;68210;52.032;4.634;2023-06-22T05:44:15;21.77;;;13.20;;
78858;SDS011;68210;52.032;4.634;2023-06-22T05:46:15;21.75;;;13.70;;
78858;SDS011;68210;52.032;4.634;2023-06-22T05:48:17;18.65;;;12.63;;
78858;SDS011;68210;52.032;4.634;2023-06-22T05:50:17;18.05;;;11.38;;
78858;SDS011;68210;52.032;4.634;2023-06-22T05:52:17;13.98;;;7.30;;
78858;SDS011;68210;52.032;4.634;2023-06-22T05:54:18;15.23;;;10.95;;
78858;SDS011;68210;52.032;4.634;2023-06-22T05:56:18;15.98;;;10.38;;
78858;SDS011;68210;52.032;4.634;2023-06-22T05:58:18;25.42;;;14.43;;
78858;SDS011;68210;52.032;4.634;2023-06-22T06:00:19;17.23;;;11.93;;
78858;SDS011;68210;52.032;4.634;2023-06-22T06:02:23;19.75;;;12.43;;
78858;SDS011;68210;52.032;4.634;2023-06-22T06:04:23;14.18;;;10.13;;
78858;SDS011;68210;52.032;4.634;2023-06-22T06:06:24;17.88;;;12.18;;
78858;SDS011;68210;52.032;4.634;2023-06-22T06:08:28;17.17;;;12.55;;
78858;SDS011;68210;52.032;4.634;2023-06-22T06:10:28;14.27;;;9.95;;
78858;SDS011;68210;52.032;4.634;2023-06-22T06:12:32;19.05;;;11.88;;
78858;SDS011;68210;52.032;4.634;2023-06-22T06:14:32;17.98;;;12.40;;
78858;SDS011;68210;52.032;4.634;2023-06-22T06:16:34;17.73;;;11.07;;
78858;SDS011;68210;52.032;4.634;2023-06-22T06:18:35;10.77;;;7.78;;
78858;SDS011;68210;52.032;4.634;2023-06-22T06:20:37;16.02;;;11.00;;
78858;SDS011;68210;52.032;4.634;2023-06-22T06:22:37;17.58;;;10.35;;
78858;SDS011;68210;52.032;4.634;2023-06-22T06:24:38;15.95;;;10.63;;
78858;SDS011;68210;52.032;4.634;2023-06-22T06:26:38;16.88;;;10.45;;
78858;SDS011;68210;52.032;4.634;2023-06-22T06:28:39;14.40;;;9.27;;
78858;SDS011;68210;52.032;4.634;2023-06-22T06:30:40;16.80;;;9.50;;
78858;SDS011;68210;52.032;4.634;2023-06-22T06:32:41;15.25;;;10.75;;
78858;SDS011;68210;52.032;4.634;2023-06-22T06:34:42;15.45;;;10.43;;
78858;SDS011;68210;52.032;4.634;2023-06-22T06:36:43;14.63;;;9.18;;
78858;SDS011;68210;52.032;4.634;2023-06-22T06:38:44;12.05;;;7.72;;
78858;SDS011;68210;52.032;4.634;2023-06-22T06:40:47;14.65;;;9.82;;
78858;SDS011;68210;52.032;4.634;2023-06-22T06:42:49;14.70;;;9.18;;
78858;SDS011;68210;52.032;4.634;2023-06-22T06:44:49;14.15;;;9.45;;
78858;SDS011;68210;52.032;4.634;2023-06-22T06:46:50;9.82;;;6.97;;
78858;SDS011;68210;52.032;4.634;2023-06-22T06:48:51;15.32;;;9.45;;
78858;SDS011;68210;52.032;4.634;2023-06-22T06:50:52;10.52;;;6.72;;
78858;SDS011;68210;52.032;4.634;2023-06-22T06:52:52;12.73;;;8.18;;
78858;SDS011;68210;52.032;4.634;2023-06-22T06:54:53;13.48;;;9.23;;
78858;SDS011;68210;52.032;4.634;2023-06-22T06:56:53;17.55;;;8.90;;
78858;SDS011;68210;52.032;4.634;2023-06-22T06:58:53;12.82;;;9.00;;
78858;SDS011;68210;52.032;4.634;2023-06-22T07:00:54;13.95;;;9.40;;
78858;SDS011;68210;52.032;4.634;2023-06-22T07:02:54;13.52;;;8.73;;
78858;SDS011;68210;52.032;4.634;2023-06-22T07:04:55;14.38;;;9.00;;
78858;SDS011;68210;52.032;4.634;2023-06-22T07:06:55;16.63;;;9.23;;
78858;SDS011;68210;52.032;4.634;2023-06-22T07:08:56;13.55;;;9.48;;
78858;SDS011;68210;52.032;4.634;2023-06-22T07:10:56;13.70;;;8.52;;
78858;SDS011;68210;52.032;4.634;2023-06-22T07:12:57;11.85;;;6.38;;
78858;SDS011;68210;52.032;4.634;2023-06-22T07:15:07;9.50;;;6.40;;
78858;SDS011;68210;52.032;4.634;2023-06-22T07:17:09;10.00;;;7.22;;
78858;SDS011;68210;52.032;4.634;2023-06-22T07:19:11;12.77;;;8.10;;
78858;SDS011;68210;52.032;4.634;2023-06-22T07:21:12;11.43;;;7.75;;
78858;SDS011;68210;52.032;4.634;2023-06-22T07:23:13;9.70;;;6.47;;
78858;SDS011;68210;52.032;4.634;2023-06-22T07:25:13;9.88;;;6.30;;
78858;SDS011;68210;52.032;4.634;2023-06-22T07:27:17;9.15;;;5.80;;
78858;SDS011;68210;52.032;4.634;2023-06-22T07:29:21;9.43;;;5.63;;
78858;SDS011;68210;52.032;4.634;2023-06-22T07:31:23;8.55;;;6.25;;
78858;SDS011;68210;52.032;4.634;2023-06-22T07:33:24;8.77;;;6.70;;
78858;SDS011;68210;52.032;4.634;2023-06-22T07:35:25;8.43;;;5.78;;
78858;SDS011;68210;52.032;4.634;2023-06-22T07:37:25;8.95;;;6.30;;
78858;SDS011;68210;52.032;4.634;2023-06-22T07:41:28;7.68;;;5.72;;
78858;SDS011;68210;52.032;4.634;2023-06-22T07:43:30;7.93;;;5.18;;
78858;SDS011;68210;52.032;4.634;2023-06-22T07:45:30;7.90;;;4.53;;
78858;SDS011;68210;52.032;4.634;2023-06-22T07:47:33;6.13;;;4.40;;
78858;SDS011;68210;52.032;4.634;2023-06-22T07:49:35;9.70;;;5.55;;
78858;SDS011;68210;52.032;4.634;2023-06-22T07:51:35;9.93;;;5.30;;
78858;SDS011;68210;52.032;4.634;2023-06-22T07:53:36;7.50;;;5.32;;
78858;SDS011;68210;52.032;4.634;2023-06-22T07:55:36;6.53;;;4.32;;
78858;SDS011;68210;52.032;4.634;2023-06-22T07:57:36;5.75;;;4.00;;
78858;SDS011;68210;52.032;4.634;2023-06-22T07:59:37;7.53;;;4.07;;
78858;SDS011;68210;52.032;4.634;2023-06-22T08:01:38;5.75;;;3.88;;
78858;SDS011;68210;52.032;4.634;2023-06-22T08:03:39;7.38;;;3.95;;
78858;SDS011;68210;52.032;4.634;2023-06-22T08:05:40;8.40;;;5.47;;
78858;SDS011;68210;52.032;4.634;2023-06-22T08:07:40;7.20;;;4.45;;
78858;SDS011;68210;52.032;4.634;2023-06-22T08:09:42;6.80;;;4.72;;
78858;SDS011;68210;52.032;4.634;2023-06-22T08:11:47;6.80;;;4.72;;
78858;SDS011;68210;52.032;4.634;2023-06-22T08:13:48;7.10;;;5.00;;
78858;SDS011;68210;52.032;4.634;2023-06-22T08:15:49;9.35;;;5.47;;
78858;SDS011;68210;52.032;4.634;2023-06-22T08:17:49;8.60;;;5.35;;
78858;SDS011;68210;52.032;4.634;2023-06-22T08:19:49;9.65;;;6.05;;
78858;SDS011;68210;52.032;4.634;2023-06-22T08:21:50;9.77;;;7.10;;
78858;SDS011;68210;52.032;4.634;2023-06-22T08:23:50;11.90;;;7.13;;
78858;SDS011;68210;52.032;4.634;2023-06-22T08:25:51;13.68;;;9.13;;
78858;SDS011;68210;52.032;4.634;2023-06-22T08:27:51;13.13;;;9.02;;
78858;SDS011;68210;52.032;4.634;2023-06-22T08:29:51;16.40;;;9.15;;
78858;SDS011;68210;52.032;4.634;2023-06-22T08:31:57;16.15;;;10.48;;
78858;SDS011;68210;52.032;4.634;2023-06-22T08:33:57;14.85;;;10.35;;
78858;SDS011;68210;52.032;4.634;2023-06-22T08:35:58;14.55;;;8.85;;
78858;SDS011;68210;52.032;4.634;2023-06-22T08:38:00;14.02;;;8.52;;
78858;SDS011;68210;52.032;4.634;2023-06-22T08:40:03;13.43;;;10.10;;
78858;SDS011;68210;52.032;4.634;2023-06-22T08:42:08;15.07;;;10.40;;
78858;SDS011;68210;52.032;4.634;2023-06-22T08:44:09;18.38;;;11.07;;
78858;SDS011;68210;52.032;4.634;2023-06-22T08:46:10;16.42;;;10.90;;
78858;SDS011;68210;52.032;4.634;2023-06-22T08:48:11;14.73;;;9.98;;
78858;SDS011;68210;52.032;4.634;2023-06-22T08:50:11;17.45;;;12.43;;
78858;SDS011;68210;52.032;4.634;2023-06-22T08:52:13;17.88;;;11.35;;
78858;SDS011;68210;52.032;4.634;2023-06-22T08:54:13;14.68;;;10.50;;
78858;SDS011;68210;52.032;4.634;2023-06-22T08:56:13;18.52;;;12.00;;
78858;SDS011;68210;52.032;4.634;2023-06-22T08:58:14;17.02;;;11.88;;
78858;SDS011;68210;52.032;4.634;2023-06-22T09:00:14;17.75;;;10.93;;
78858;SDS011;68210;52.032;4.634;2023-06-22T09:02:17;16.27;;;12.07;;
78858;SDS011;68210;52.032;4.634;2023-06-22T09:04:17;15.05;;;10.57;;
78858;SDS011;68210;52.032;4.634;2023-06-22T09:06:18;18.38;;;12.63;;
78858;SDS011;68210;52.032;4.634;2023-06-22T09:08:18;16.98;;;13.23;;
78858;SDS011;68210;52.032;4.634;2023-06-22T09:10:20;18.98;;;12.60;;
78858;SDS011;68210;52.032;4.634;2023-06-22T09:12:20;15.63;;;10.80;;
78858;SDS011;68210;52.032;4.634;2023-06-22T09:14:25;15.30;;;11.65;;
78858;SDS011;68210;52.032;4.634;2023-06-22T09:16:27;18.20;;;12.13;;
78858;SDS011;68210;52.032;4.634;2023-06-22T09:18:27;19.60;;;12.32;;
78858;SDS011;68210;52.032;4.634;2023-06-22T09:20:27;17.63;;;11.70;;
78858;SDS011;68210;52.032;4.634;2023-06-22T09:22:28;15.75;;;11.52;;
78858;SDS011;68210;52.032;4.634;2023-06-22T09:24:29;16.02;;;11.10;;
78858;SDS011;68210;52.032;4.634;2023-06-22T09:26:29;15.38;;;10.20;;
78858;SDS011;68210;52.032;4.634;2023-06-22T09:28:29;13.25;;;8.50;;
78858;SDS011;68210;52.032;4.634;2023-06-22T09:30:30;14.25;;;9.95;;
78858;SDS011;68210;52.032;4.634;2023-06-22T09:32:30;13.25;;;9.23;;
78858;SDS011;68210;52.032;4.634;2023-06-22T09:34:31;15.05;;;10.07;;
78858;SDS011;68210;52.032;4.634;2023-06-22T09:36:31;15.30;;;11.02;;
78858;SDS011;68210;52.032;4.634;2023-06-22T09:38:31;14.90;;;10.35;;
78858;SDS011;68210;52.032;4.634;2023-06-22T09:40:32;14.48;;;9.48;;
78858;SDS011;68210;52.032;4.634;2023-06-22T09:42:40;17.50;;;11.85;;
78858;SDS011;68210;52.032;4.634;2023-06-22T09:44:41;14.35;;;9.65;;
78858;SDS011;68210;52.032;4.634;2023-06-22T09:46:41;15.02;;;10.32;;
78858;SDS011;68210;52.032;4.634;2023-06-22T09:48:42;15.32;;;10.18;;
78858;SDS011;68210;52.032;4.634;2023-06-22T09:50:43;15.85;;;11.27;;
78858;SDS011;68210;52.032;4.634;2023-06-22T09:52:44;14.98;;;10.95;;
78858;SDS011;68210;52.032;4.634;2023-06-22T09:54:46;16.38;;;11.20;;
78858;SDS011;68210;52.032;4.634;2023-06-22T09:56:46;16.08;;;10.82;;
78858;SDS011;68210;52.032;4.634;2023-06-22T09:58:47;15.90;;;11.60;;
78858;SDS011;68210;52.032;4.634;2023-06-22T10:00:50;16.52;;;11.70;;
78858;SDS011;68210;52.032;4.634;2023-06-22T10:02:50;16.45;;;11.10;;
78858;SDS011;68210;52.032;4.634;2023-06-22T10:04:50;15.32;;;9.82;;
78858;SDS011;68210;52.032;4.634;2023-06-22T10:06:51;14.57;;;10.05;;
78858;SDS011;68210;52.032;4.634;2023-06-22T10:08:51;14.35;;;10.13;;
78858;SDS011;68210;52.032;4.634;2023-06-22T10:10:52;14.73;;;9.80;;
78858;SDS011;68210;52.032;4.634;2023-06-22T10:12:56;11.88;;;9.73;;
78858;SDS011;68210;52.032;4.634;2023-06-22T10:14:57;15.73;;;10.85;;
78858;SDS011;68210;52.032;4.634;2023-06-22T10:16:58;15.30;;;10.75;;
78858;SDS011;68210;52.032;4.634;2023-06-22T10:18:58;17.33;;;11.88;;
78858;SDS011;68210;52.032;4.634;2023-06-22T10:20:59;15.70;;;10.25;;
78858;SDS011;68210;52.032;4.634;2023-06-22T10:22:59;16.67;;;11.15;;
78858;SDS011;68210;52.032;4.634;2023-06-22T10:25:00;15.02;;;10.05;;
78858;SDS011;68210;52.032;4.634;2023-06-22T10:27:00;14.77;;;10.95;;
78858;SDS011;68210;52.032;4.634;2023-06-22T10:29:01;15.82;;;10.77;;
78858;SDS011;68210;52.032;4.634;2023-06-22T10:31:02;15.35;;;11.13;;
78858;SDS011;68210;52.032;4.634;2023-06-22T10:33:02;17.63;;;10.68;;
78858;SDS011;68210;52.032;4.634;2023-06-22T10:35:03;15.32;;;10.82;;
78858;SDS011;68210;52.032;4.634;2023-06-22T10:37:03;17.90;;;11.25;;
78858;SDS011;68210;52.032;4.634;2023-06-22T10:39:04;16.50;;;11.45;;
78858;SDS011;68210;52.032;4.634;2023-06-22T10:41:05;16.80;;;12.43;;
78858;SDS011;68210;52.032;4.634;2023-06-22T10:43:06;18.25;;;12.52;;
78858;SDS011;68210;52.032;4.634;2023-06-22T10:45:06;14.73;;;9.77;;
78858;SDS011;68210;52.032;4.634;2023-06-22T10:47:08;18.00;;;12.57;;
78858;SDS011;68210;52.032;4.634;2023-06-22T10:49:08;13.00;;;11.02;;
78858;SDS011;68210;52.032;4.634;2023-06-22T10:51:08;15.35;;;10.55;;
78858;SDS011;68210;52.032;4.634;2023-06-22T10:53:09;15.48;;;11.70;;
78858;SDS011;68210;52.032;4.634;2023-06-22T10:55:11;18.05;;;13.32;;
78858;SDS011;68210;52.032;4.634;2023-06-22T10:57:11;14.38;;;11.38;;
78858;SDS011;68210;52.032;4.634;2023-06-22T10:59:11;15.23;;;10.27;;
78858;SDS011;68210;52.032;4.634;2023-06-22T11:01:12;18.95;;;9.82;;
78858;SDS011;68210;52.032;4.634;2023-06-22T11:03:13;16.80;;;10.25;;
78858;SDS011;68210;52.032;4.634;2023-06-22T11:05:14;14.55;;;9.98;;
78858;SDS011;68210;52.032;4.634;2023-06-22T11:07:15;13.70;;;9.93;;
78858;SDS011;68210;52.032;4.634;2023-06-22T11:09:16;15.55;;;11.25;;
78858;SDS011;68210;52.032;4.634;2023-06-22T11:11:21;13.88;;;10.43;;
78858;SDS011;68210;52.032;4.634;2023-06-22T11:13:21;13.90;;;10.02;;
78858;SDS011;68210;52.032;4.634;2023-06-22T11:15:21;14.88;;;9.85;;
78858;SDS011;68210;52.032;4.634;2023-06-22T11:17:22;14.13;;;8.88;;
78858;SDS011;68210;52.032;4.634;2023-06-22T11:19:22;13.55;;;8.50;;
78858;SDS011;68210;52.032;4.634;2023-06-22T11:21:23;13.10;;;9.00;;
78858;SDS011;68210;52.032;4.634;2023-06-22T11:23:24;12.85;;;9.30;;
78858;SDS011;68210;52.032;4.634;2023-06-22T11:25:26;14.27;;;9.13;;
78858;SDS011;68210;52.032;4.634;2023-06-22T11:27:26;12.50;;;9.27;;
78858;SDS011;68210;52.032;4.634;2023-06-22T11:29:26;12.18;;;8.93;;
78858;SDS011;68210;52.032;4.634;2023-06-22T11:31:27;12.82;;;9.55;;
78858;SDS011;68210;52.032;4.634;2023-06-22T11:33:27;13.20;;;9.80;;
78858;SDS011;68210;52.032;4.634;2023-06-22T11:35:27;10.80;;;8.15;;
78858;SDS011;68210;52.032;4.634;2023-06-22T11:37:28;16.25;;;10.05;;
78858;SDS011;68210;52.032;4.634;2023-06-22T11:39:28;18.48;;;12.02;;
78858;SDS011;68210;52.032;4.634;2023-06-22T11:41:29;16.33;;;10.35;;
78858;SDS011;68210;52.032;4.634;2023-06-22T11:43:29;16.85;;;11.73;;
78858;SDS011;68210;52.032;4.634;2023-06-22T11:45:31;17.63;;;12.25;;
78858;SDS011;68210;52.032;4.634;2023-06-22T11:47:31;18.17;;;12.07;;
78858;SDS011;68210;52.032;4.634;2023-06-22T11:49:31;17.33;;;11.40;;
78858;SDS011;68210;52.032;4.634;2023-06-22T11:51:32;19.52;;;13.02;;
78858;SDS011;68210;52.032;4.634;2023-06-22T11:53:32;18.17;;;12.73;;
78858;SDS011;68210;52.032;4.634;2023-06-22T11:55:33;18.98;;;11.88;;
78858;SDS011;68210;52.032;4.634;2023-06-22T11:57:34;22.40;;;13.02;;
78858;SDS011;68210;52.032;4.634;2023-06-22T11:59:35;14.70;;;10.63;;
78858;SDS011;68210;52.032;4.634;2023-06-22T12:01:35;21.35;;;12.45;;
78858;SDS011;68210;52.032;4.634;2023-06-22T12:03:35;19.90;;;14.23;;
78858;SDS011;68210;52.032;4.634;2023-06-22T12:05:36;23.00;;;13.80;;